sensor_id;sensor_type;location;lat;lon;timestamp;P1;durP1;ratioP1;P2;durP2;ratioP2
8466;SDS011;4270;48.148;11.648;2024-03-17T00:01:41;4.00;;;2.90;;
8466;SDS011;4270;48.148;11.648;2024-03-17T00:04:06;3.20;;;2.73;;
8466;SDS011;4270;48.148;11.648;2024-03-17T00:06:32;4.70;;;3.10;;
8466;SDS011;4270;48.148;11.648;2024-03-17T00:08:57;3.60;;;3.27;;
8466;SDS011;4270;48.148;11.648;2024-03-17T00:11:22;3.23;;;2.60;;
8466;SDS011;4270;48.148;11.648;2024-03-17T00:13:48;4.70;;;2.70;;
8466;SDS011;4270;48.148;11.648;2024-03-17T00:16:13;4.27;;;2.90;;
8466;SDS011;4270;48.148;11.648;2024-03-17T00:18:39;4.50;;;3.30;;
8466;SDS011;4270;48.148;11.648;2024-03-17T00:21:04;5.70;;;2.80;;
8466;SDS011;4270;48.148;11.648;2024-03-17T00:23:29;3.57;;;2.73;;
8466;SDS011;4270;48.148;11.648;2024-03-17T00:25:55;7.63;;;2.90;;
8466;SDS011;4270;48.148;11.648;2024-03-17T00:28:20;4.40;;;3.27;;
8466;SDS011;4270;48.148;11.648;2024-03-17T00:30:45;4.33;;;3.30;;
8466;SDS011;4270;48.148;11.648;2024-03-17T00:33:11;3.53;;;2.93;;
8466;SDS011;4270;48.148;11.648;2024-03-17T00:35:36;3.93;;;3.10;;
8466;SDS011;4270;48.148;11.648;2024-03-17T00:38:01;4.00;;;2.60;;
8466;SDS011;4270;48.148;11.648;2024-03-17T00:40:34;4.37;;;3.00;;
8466;SDS011;4270;48.148;11.648;2024-03-17T00:43:00;4.67;;;3.10;;
8466;SDS011;4270;48.148;11.648;2024-03-17T00:45:25;4.60;;;3.77;;
8466;SDS011;4270;48.148;11.648;2024-03-17T00:47:50;8.80;;;5.17;;
8466;SDS011;4270;48.148;11.648;2024-03-17T00:50:15;6.17;;;4.20;;
8466;SDS011;4270;48.148;11.648;2024-03-17T00:52:41;6.30;;;3.20;;
8466;SDS011;4270;48.148;11.648;2024-03-17T00:55:06;6.43;;;3.60;;
8466;SDS011;4270;48.148;11.648;2024-03-17T00:57:31;6.13;;;3.77;;
8466;SDS011;4270;48.148;11.648;2024-03-17T00:59:57;5.10;;;4.07;;
8466;SDS011;4270;48.148;11.648;2024-03-17T01:02:22;5.67;;;3.50;;
8466;SDS011;4270;48.148;11.648;2024-03-17T01:04:47;6.53;;;4.07;;
8466;SDS011;4270;48.148;11.648;2024-03-17T01:07:12;5.30;;;4.07;;
8466;SDS011;4270;48.148;11.648;2024-03-17T01:09:38;4.30;;;3.40;;
8466;SDS011;4270;48.148;11.648;2024-03-17T01:12:04;5.00;;;3.73;;
8466;SDS011;4270;48.148;11.648;2024-03-17T01:14:30;4.60;;;3.23;;
8466;SDS011;4270;48.148;11.648;2024-03-17T01:16:55;4.70;;;3.80;;
8466;SDS011;4270;48.148;11.648;2024-03-17T01:19:21;4.10;;;3.50;;
8466;SDS011;4270;48.148;11.648;2024-03-17T01:21:46;5.00;;;3.13;;
8466;SDS011;4270;48.148;11.648;2024-03-17T01:24:11;3.90;;;3.33;;
8466;SDS011;4270;48.148;11.648;2024-03-17T01:26:36;6.20;;;3.50;;
8466;SDS011;4270;48.148;11.648;2024-03-17T01:29:02;8.70;;;6.10;;
8466;SDS011;4270;48.148;11.648;2024-03-17T01:31:27;10.27;;;7.10;;
8466;SDS011;4270;48.148;11.648;2024-03-17T01:33:53;11.20;;;7.03;;
8466;SDS011;4270;48.148;11.648;2024-03-17T01:36:18;7.90;;;5.97;;
8466;SDS011;4270;48.148;11.648;2024-03-17T01:38:43;15.20;;;6.53;;
8466;SDS011;4270;48.148;11.648;2024-03-17T01:41:08;9.03;;;6.37;;
8466;SDS011;4270;48.148;11.648;2024-03-17T01:43:34;10.63;;;6.30;;
8466;SDS011;4270;48.148;11.648;2024-03-17T01:46:00;7.83;;;5.97;;
8466;SDS011;4270;48.148;11.648;2024-03-17T01:48:27;6.57;;;4.90;;
8466;SDS011;4270;48.148;11.648;2024-03-17T01:50:52;6.50;;;4.70;;
8466;SDS011;4270;48.148;11.648;2024-03-17T01:53:18;8.13;;;5.20;;
8466;SDS011;4270;48.148;11.648;2024-03-17T01:55:45;7.87;;;4.30;;
8466;SDS011;4270;48.148;11.648;2024-03-17T01:58:10;7.77;;;4.53;;
8466;SDS011;4270;48.148;11.648;2024-03-17T02:00:36;5.80;;;4.77;;
8466;SDS011;4270;48.148;11.648;2024-03-17T02:03:05;8.27;;;5.40;;
8466;SDS011;4270;48.148;11.648;2024-03-17T02:05:31;8.57;;;5.20;;
8466;SDS011;4270;48.148;11.648;2024-03-17T02:07:56;6.03;;;4.90;;
8466;SDS011;4270;48.148;11.648;2024-03-17T02:10:21;7.17;;;4.93;;
8466;SDS011;4270;48.148;11.648;2024-03-17T02:12:47;5.67;;;4.00;;
8466;SDS011;4270;48.148;11.648;2024-03-17T02:15:12;6.63;;;5.17;;
8466;SDS011;4270;48.148;11.648;2024-03-17T02:17:39;6.60;;;4.83;;
8466;SDS011;4270;48.148;11.648;2024-03-17T02:20:04;8.33;;;4.30;;
8466;SDS011;4270;48.148;11.648;2024-03-17T02:22:32;5.70;;;4.40;;
8466;SDS011;4270;48.148;11.648;2024-03-17T02:24:57;7.00;;;4.83;;
8466;SDS011;4270;48.148;11.648;2024-03-17T02:27:23;6.87;;;4.20;;
8466;SDS011;4270;48.148;11.648;2024-03-17T02:29:48;4.80;;;4.30;;
8466;SDS011;4270;48.148;11.648;2024-03-17T02:32:14;6.13;;;4.20;;
8466;SDS011;4270;48.148;11.648;2024-03-17T02:34:39;8.07;;;4.30;;
8466;SDS011;4270;48.148;11.648;2024-03-17T02:37:05;4.43;;;3.67;;
8466;SDS011;4270;48.148;11.648;2024-03-17T02:39:32;4.10;;;3.70;;
8466;SDS011;4270;48.148;11.648;2024-03-17T02:42:03;5.77;;;4.00;;
8466;SDS011;4270;48.148;11.648;2024-03-17T02:44:30;4.90;;;3.97;;
8466;SDS011;4270;48.148;11.648;2024-03-17T02:46:56;6.80;;;4.40;;
8466;SDS011;4270;48.148;11.648;2024-03-17T02:49:21;6.27;;;4.47;;
8466;SDS011;4270;48.148;11.648;2024-03-17T02:51:47;7.70;;;4.13;;
8466;SDS011;4270;48.148;11.648;2024-03-17T02:54:12;5.27;;;4.13;;
8466;SDS011;4270;48.148;11.648;2024-03-17T02:56:37;4.93;;;3.90;;
8466;SDS011;4270;48.148;11.648;2024-03-17T02:59:03;6.23;;;3.77;;
8466;SDS011;4270;48.148;11.648;2024-03-17T03:01:28;4.80;;;3.47;;
8466;SDS011;4270;48.148;11.648;2024-03-17T03:03:53;7.60;;;3.80;;
8466;SDS011;4270;48.148;11.648;2024-03-17T03:06:18;6.23;;;3.60;;
8466;SDS011;4270;48.148;11.648;2024-03-17T03:08:44;5.50;;;3.40;;
8466;SDS011;4270;48.148;11.648;2024-03-17T03:11:13;6.70;;;3.93;;
8466;SDS011;4270;48.148;11.648;2024-03-17T03:13:39;5.43;;;3.90;;
8466;SDS011;4270;48.148;11.648;2024-03-17T03:16:08;5.43;;;3.67;;
8466;SDS011;4270;48.148;11.648;2024-03-17T03:18:34;5.70;;;3.40;;
8466;SDS011;4270;48.148;11.648;2024-03-17T03:20:59;4.80;;;3.70;;
8466;SDS011;4270;48.148;11.648;2024-03-17T03:23:25;4.60;;;3.77;;
8466;SDS011;4270;48.148;11.648;2024-03-17T03:25:57;5.97;;;4.47;;
8466;SDS011;4270;48.148;11.648;2024-03-17T03:28:22;5.03;;;3.63;;
8466;SDS011;4270;48.148;11.648;2024-03-17T03:30:48;5.33;;;4.00;;
8466;SDS011;4270;48.148;11.648;2024-03-17T03:33:13;5.83;;;3.30;;
8466;SDS011;4270;48.148;11.648;2024-03-17T03:35:38;6.40;;;4.90;;
8466;SDS011;4270;48.148;11.648;2024-03-17T03:38:04;5.33;;;3.57;;
8466;SDS011;4270;48.148;11.648;2024-03-17T03:40:30;8.07;;;4.93;;
8466;SDS011;4270;48.148;11.648;2024-03-17T03:42:55;4.83;;;4.33;;
8466;SDS011;4270;48.148;11.648;2024-03-17T03:45:21;6.13;;;3.93;;
8466;SDS011;4270;48.148;11.648;2024-03-17T03:47:46;5.33;;;4.27;;
8466;SDS011;4270;48.148;11.648;2024-03-17T03:50:14;5.13;;;3.80;;
8466;SDS011;4270;48.148;11.648;2024-03-17T03:52:40;7.80;;;4.43;;
8466;SDS011;4270;48.148;11.648;2024-03-17T03:55:06;4.97;;;4.10;;
8466;SDS011;4270;48.148;11.648;2024-03-17T03:57:32;8.97;;;4.30;;
8466;SDS011;4270;48.148;11.648;2024-03-17T03:59:59;6.40;;;4.63;;
8466;SDS011;4270;48.148;11.648;2024-03-17T04:02:24;5.20;;;3.80;;
8466;SDS011;4270;48.148;11.648;2024-03-17T04:04:56;6.57;;;4.60;;
8466;SDS011;4270;48.148;11.648;2024-03-17T04:07:21;4.93;;;4.20;;
8466;SDS011;4270;48.148;11.648;2024-03-17T04:09:46;6.17;;;4.60;;
8466;SDS011;4270;48.148;11.648;2024-03-17T04:12:12;5.60;;;4.40;;
8466;SDS011;4270;48.148;11.648;2024-03-17T04:14:37;9.90;;;4.30;;
8466;SDS011;4270;48.148;11.648;2024-03-17T04:17:03;6.37;;;4.60;;
8466;SDS011;4270;48.148;11.648;2024-03-17T04:19:28;5.73;;;4.70;;
8466;SDS011;4270;48.148;11.648;2024-03-17T04:21:54;7.03;;;4.60;;
8466;SDS011;4270;48.148;11.648;2024-03-17T04:24:19;6.37;;;4.57;;
8466;SDS011;4270;48.148;11.648;2024-03-17T04:26:44;5.43;;;4.30;;
8466;SDS011;4270;48.148;11.648;2024-03-17T04:29:10;4.60;;;4.10;;
8466;SDS011;4270;48.148;11.648;2024-03-17T04:31:35;5.60;;;4.87;;
8466;SDS011;4270;48.148;11.648;2024-03-17T04:34:00;5.20;;;4.20;;
8466;SDS011;4270;48.148;11.648;2024-03-17T04:36:26;6.07;;;4.27;;
8466;SDS011;4270;48.148;11.648;2024-03-17T04:38:51;5.70;;;3.80;;
8466;SDS011;4270;48.148;11.648;2024-03-17T04:41:16;6.33;;;4.70;;
8466;SDS011;4270;48.148;11.648;2024-03-17T04:43:42;6.33;;;4.47;;
8466;SDS011;4270;48.148;11.648;2024-03-17T04:46:07;6.97;;;5.07;;
8466;SDS011;4270;48.148;11.648;2024-03-17T04:48:36;9.53;;;5.03;;
8466;SDS011;4270;48.148;11.648;2024-03-17T04:51:01;6.07;;;5.27;;
8466;SDS011;4270;48.148;11.648;2024-03-17T04:53:27;5.93;;;4.50;;
8466;SDS011;4270;48.148;11.648;2024-03-17T04:56:02;6.00;;;4.50;;
8466;SDS011;4270;48.148;11.648;2024-03-17T04:58:29;5.70;;;4.63;;
8466;SDS011;4270;48.148;11.648;2024-03-17T05:00:54;7.00;;;4.83;;
8466;SDS011;4270;48.148;11.648;2024-03-17T05:03:20;9.10;;;5.70;;
8466;SDS011;4270;48.148;11.648;2024-03-17T05:05:45;11.30;;;4.93;;
8466;SDS011;4270;48.148;11.648;2024-03-17T05:08:10;7.00;;;4.70;;
8466;SDS011;4270;48.148;11.648;2024-03-17T05:10:36;5.57;;;4.03;;
8466;SDS011;4270;48.148;11.648;2024-03-17T05:13:01;7.40;;;5.20;;
8466;SDS011;4270;48.148;11.648;2024-03-17T05:15:27;7.03;;;4.93;;
8466;SDS011;4270;48.148;11.648;2024-03-17T05:17:53;7.73;;;5.60;;
8466;SDS011;4270;48.148;11.648;2024-03-17T05:20:18;8.10;;;4.90;;
8466;SDS011;4270;48.148;11.648;2024-03-17T05:22:44;7.67;;;4.70;;
8466;SDS011;4270;48.148;11.648;2024-03-17T05:25:11;6.10;;;4.53;;
8466;SDS011;4270;48.148;11.648;2024-03-17T05:27:38;5.90;;;4.90;;
8466;SDS011;4270;48.148;11.648;2024-03-17T05:30:03;6.40;;;4.50;;
8466;SDS011;4270;48.148;11.648;2024-03-17T05:32:29;5.73;;;4.30;;
8466;SDS011;4270;48.148;11.648;2024-03-17T05:34:54;5.77;;;4.53;;
8466;SDS011;4270;48.148;11.648;2024-03-17T05:37:20;5.60;;;4.40;;
8466;SDS011;4270;48.148;11.648;2024-03-17T05:39:45;6.97;;;4.83;;
8466;SDS011;4270;48.148;11.648;2024-03-17T05:42:11;8.23;;;4.40;;
8466;SDS011;4270;48.148;11.648;2024-03-17T05:44:36;7.90;;;4.80;;
8466;SDS011;4270;48.148;11.648;2024-03-17T05:47:16;7.80;;;4.20;;
8466;SDS011;4270;48.148;11.648;2024-03-17T05:49:41;5.27;;;4.33;;
8466;SDS011;4270;48.148;11.648;2024-03-17T05:52:07;7.47;;;4.60;;
8466;SDS011;4270;48.148;11.648;2024-03-17T05:54:33;7.70;;;5.30;;
8466;SDS011;4270;48.148;11.648;2024-03-17T05:56:58;5.67;;;4.30;;
8466;SDS011;4270;48.148;11.648;2024-03-17T05:59:24;6.57;;;4.30;;
8466;SDS011;4270;48.148;11.648;2024-03-17T06:01:49;5.63;;;4.23;;
8466;SDS011;4270;48.148;11.648;2024-03-17T06:04:14;7.37;;;4.70;;
8466;SDS011;4270;48.148;11.648;2024-03-17T06:06:39;7.83;;;4.70;;
8466;SDS011;4270;48.148;11.648;2024-03-17T06:09:05;6.60;;;4.40;;
8466;SDS011;4270;48.148;11.648;2024-03-17T06:11:34;5.67;;;4.80;;
8466;SDS011;4270;48.148;11.648;2024-03-17T06:13:59;5.37;;;4.13;;
8466;SDS011;4270;48.148;11.648;2024-03-17T06:16:27;6.13;;;4.80;;
8466;SDS011;4270;48.148;11.648;2024-03-17T06:18:52;5.53;;;4.37;;
8466;SDS011;4270;48.148;11.648;2024-03-17T06:21:17;5.60;;;4.77;;
8466;SDS011;4270;48.148;11.648;2024-03-17T06:23:42;5.43;;;4.43;;
8466;SDS011;4270;48.148;11.648;2024-03-17T06:26:11;5.67;;;4.87;;
8466;SDS011;4270;48.148;11.648;2024-03-17T06:28:37;5.83;;;4.80;;
8466;SDS011;4270;48.148;11.648;2024-03-17T06:31:02;7.93;;;4.53;;
8466;SDS011;4270;48.148;11.648;2024-03-17T06:33:32;5.13;;;4.10;;
8466;SDS011;4270;48.148;11.648;2024-03-17T06:35:57;4.80;;;4.10;;
8466;SDS011;4270;48.148;11.648;2024-03-17T06:38:23;7.17;;;4.77;;
8466;SDS011;4270;48.148;11.648;2024-03-17T06:40:51;4.53;;;3.70;;
8466;SDS011;4270;48.148;11.648;2024-03-17T06:43:17;5.43;;;3.90;;
8466;SDS011;4270;48.148;11.648;2024-03-17T06:45:42;4.53;;;3.53;;
8466;SDS011;4270;48.148;11.648;2024-03-17T06:48:07;8.77;;;4.73;;
8466;SDS011;4270;48.148;11.648;2024-03-17T06:50:32;6.40;;;4.63;;
8466;SDS011;4270;48.148;11.648;2024-03-17T06:52:58;5.47;;;4.40;;
8466;SDS011;4270;48.148;11.648;2024-03-17T06:55:23;5.60;;;4.40;;
8466;SDS011;4270;48.148;11.648;2024-03-17T06:57:49;5.10;;;4.13;;
8466;SDS011;4270;48.148;11.648;2024-03-17T07:00:15;5.50;;;4.30;;
8466;SDS011;4270;48.148;11.648;2024-03-17T07:02:41;6.53;;;4.10;;
8466;SDS011;4270;48.148;11.648;2024-03-17T07:05:11;5.93;;;4.60;;
8466;SDS011;4270;48.148;11.648;2024-03-17T07:07:37;5.40;;;4.50;;
8466;SDS011;4270;48.148;11.648;2024-03-17T07:10:02;7.17;;;4.23;;
8466;SDS011;4270;48.148;11.648;2024-03-17T07:12:30;5.43;;;4.17;;
8466;SDS011;4270;48.148;11.648;2024-03-17T07:14:58;6.63;;;4.40;;
8466;SDS011;4270;48.148;11.648;2024-03-17T07:17:23;5.27;;;4.30;;
8466;SDS011;4270;48.148;11.648;2024-03-17T07:19:49;5.33;;;4.60;;
8466;SDS011;4270;48.148;11.648;2024-03-17T07:22:14;4.33;;;3.77;;
8466;SDS011;4270;48.148;11.648;2024-03-17T07:24:39;4.90;;;4.40;;
8466;SDS011;4270;48.148;11.648;2024-03-17T07:27:05;4.57;;;3.93;;
8466;SDS011;4270;48.148;11.648;2024-03-17T07:29:33;4.57;;;4.13;;
8466;SDS011;4270;48.148;11.648;2024-03-17T07:31:59;6.00;;;4.13;;
8466;SDS011;4270;48.148;11.648;2024-03-17T07:34:24;7.13;;;3.80;;
8466;SDS011;4270;48.148;11.648;2024-03-17T07:36:49;5.43;;;4.33;;
8466;SDS011;4270;48.148;11.648;2024-03-17T07:39:14;5.13;;;4.10;;
8466;SDS011;4270;48.148;11.648;2024-03-17T07:41:39;4.60;;;4.17;;
8466;SDS011;4270;48.148;11.648;2024-03-17T07:44:05;4.60;;;4.00;;
8466;SDS011;4270;48.148;11.648;2024-03-17T07:46:30;4.20;;;3.40;;
8466;SDS011;4270;48.148;11.648;2024-03-17T07:48:55;4.10;;;3.70;;
8466;SDS011;4270;48.148;11.648;2024-03-17T07:51:20;4.17;;;3.77;;
8466;SDS011;4270;48.148;11.648;2024-03-17T07:53:46;6.10;;;3.80;;
8466;SDS011;4270;48.148;11.648;2024-03-17T07:56:15;4.30;;;3.30;;
8466;SDS011;4270;48.148;11.648;2024-03-17T07:58:44;3.80;;;3.50;;
8466;SDS011;4270;48.148;11.648;2024-03-17T08:03:35;3.93;;;3.60;;
8466;SDS011;4270;48.148;11.648;2024-03-17T08:06:01;4.60;;;4.20;;
8466;SDS011;4270;48.148;11.648;2024-03-17T08:08:27;4.67;;;3.70;;
8466;SDS011;4270;48.148;11.648;2024-03-17T08:10:52;4.10;;;3.60;;
8466;SDS011;4270;48.148;11.648;2024-03-17T08:13:18;3.80;;;3.03;;
8466;SDS011;4270;48.148;11.648;2024-03-17T08:15:43;3.93;;;3.43;;
8466;SDS011;4270;48.148;11.648;2024-03-17T08:18:09;3.67;;;3.37;;
8466;SDS011;4270;48.148;11.648;2024-03-17T08:20:38;3.43;;;3.00;;
8466;SDS011;4270;48.148;11.648;2024-03-17T08:23:04;4.00;;;3.53;;
8466;SDS011;4270;48.148;11.648;2024-03-17T08:25:30;3.30;;;3.00;;
8466;SDS011;4270;48.148;11.648;2024-03-17T08:27:55;3.47;;;3.17;;
8466;SDS011;4270;48.148;11.648;2024-03-17T08:30:21;3.90;;;3.10;;
8466;SDS011;4270;48.148;11.648;2024-03-17T08:32:46;3.63;;;3.20;;
8466;SDS011;4270;48.148;11.648;2024-03-17T08:35:12;2.87;;;2.67;;
8466;SDS011;4270;48.148;11.648;2024-03-17T08:37:37;3.57;;;3.27;;
8466;SDS011;4270;48.148;11.648;2024-03-17T08:40:02;5.37;;;3.20;;
8466;SDS011;4270;48.148;11.648;2024-03-17T08:42:28;3.30;;;3.00;;
8466;SDS011;4270;48.148;11.648;2024-03-17T08:44:53;2.60;;;2.40;;
8466;SDS011;4270;48.148;11.648;2024-03-17T08:47:19;2.90;;;2.70;;
8466;SDS011;4270;48.148;11.648;2024-03-17T08:49:44;3.67;;;2.90;;
8466;SDS011;4270;48.148;11.648;2024-03-17T08:52:09;2.57;;;2.37;;
8466;SDS011;4270;48.148;11.648;2024-03-17T08:54:35;2.50;;;2.30;;
8466;SDS011;4270;48.148;11.648;2024-03-17T08:57:00;2.67;;;2.47;;
8466;SDS011;4270;48.148;11.648;2024-03-17T08:59:25;3.00;;;2.00;;
8466;SDS011;4270;48.148;11.648;2024-03-17T09:01:51;2.37;;;2.17;;
8466;SDS011;4270;48.148;11.648;2024-03-17T09:04:16;3.10;;;2.73;;
8466;SDS011;4270;48.148;11.648;2024-03-17T09:06:41;2.80;;;2.60;;
8466;SDS011;4270;48.148;11.648;2024-03-17T09:09:07;2.70;;;2.50;;
8466;SDS011;4270;48.148;11.648;2024-03-17T09:11:32;3.17;;;2.87;;
8466;SDS011;4270;48.148;11.648;2024-03-17T09:13:57;2.53;;;2.27;;
8466;SDS011;4270;48.148;11.648;2024-03-17T09:16:23;2.57;;;2.03;;
8466;SDS011;4270;48.148;11.648;2024-03-17T09:18:50;2.40;;;2.20;;
8466;SDS011;4270;48.148;11.648;2024-03-17T09:21:15;1.90;;;1.70;;
8466;SDS011;4270;48.148;11.648;2024-03-17T09:23:43;2.87;;;2.30;;
8466;SDS011;4270;48.148;11.648;2024-03-17T09:26:09;2.70;;;2.10;;
8466;SDS011;4270;48.148;11.648;2024-03-17T09:28:35;2.47;;;2.20;;
8466;SDS011;4270;48.148;11.648;2024-03-17T09:31:00;2.20;;;1.97;;
8466;SDS011;4270;48.148;11.648;2024-03-17T09:33:27;2.13;;;2.00;;
8466;SDS011;4270;48.148;11.648;2024-03-17T09:35:53;2.43;;;2.03;;
8466;SDS011;4270;48.148;11.648;2024-03-17T09:38:19;2.40;;;2.17;;
8466;SDS011;4270;48.148;11.648;2024-03-17T09:40:47;2.13;;;1.93;;
8466;SDS011;4270;48.148;11.648;2024-03-17T09:43:14;2.70;;;2.43;;
8466;SDS011;4270;48.148;11.648;2024-03-17T09:45:40;2.40;;;2.20;;
8466;SDS011;4270;48.148;11.648;2024-03-17T09:48:05;3.80;;;2.07;;
8466;SDS011;4270;48.148;11.648;2024-03-17T09:50:32;3.97;;;2.20;;
8466;SDS011;4270;48.148;11.648;2024-03-17T09:52:59;2.27;;;1.97;;
8466;SDS011;4270;48.148;11.648;2024-03-17T09:55:25;3.83;;;2.00;;
8466;SDS011;4270;48.148;11.648;2024-03-17T09:57:50;2.00;;;1.90;;
8466;SDS011;4270;48.148;11.648;2024-03-17T10:00:15;1.93;;;1.77;;
8466;SDS011;4270;48.148;11.648;2024-03-17T10:02:50;2.10;;;1.90;;
8466;SDS011;4270;48.148;11.648;2024-03-17T10:05:22;1.80;;;1.57;;
8466;SDS011;4270;48.148;11.648;2024-03-17T10:07:48;3.67;;;1.80;;
8466;SDS011;4270;48.148;11.648;2024-03-17T10:10:14;1.97;;;1.70;;
8466;SDS011;4270;48.148;11.648;2024-03-17T10:12:41;2.27;;;1.57;;
8466;SDS011;4270;48.148;11.648;2024-03-17T10:15:07;2.40;;;1.93;;
8466;SDS011;4270;48.148;11.648;2024-03-17T10:17:35;2.47;;;1.80;;
8466;SDS011;4270;48.148;11.648;2024-03-17T10:25:23;1.97;;;1.77;;
8466;SDS011;4270;48.148;11.648;2024-03-17T10:27:49;2.20;;;1.77;;
8466;SDS011;4270;48.148;11.648;2024-03-17T10:30:18;5.63;;;1.40;;
8466;SDS011;4270;48.148;11.648;2024-03-17T10:32:44;3.73;;;1.90;;
8466;SDS011;4270;48.148;11.648;2024-03-17T10:35:25;1.63;;;1.33;;
8466;SDS011;4270;48.148;11.648;2024-03-17T10:37:55;2.23;;;1.80;;
8466;SDS011;4270;48.148;11.648;2024-03-17T10:40:21;2.00;;;1.60;;
8466;SDS011;4270;48.148;11.648;2024-03-17T10:42:47;1.60;;;1.50;;
8466;SDS011;4270;48.148;11.648;2024-03-17T10:45:13;2.90;;;1.30;;
8466;SDS011;4270;48.148;11.648;2024-03-17T10:47:39;3.23;;;1.53;;
8466;SDS011;4270;48.148;11.648;2024-03-17T10:50:06;1.87;;;1.23;;
8466;SDS011;4270;48.148;11.648;2024-03-17T10:52:37;1.47;;;1.20;;
8466;SDS011;4270;48.148;11.648;2024-03-17T10:55:07;1.50;;;1.20;;
8466;SDS011;4270;48.148;11.648;2024-03-17T10:59:59;2.63;;;1.33;;
8466;SDS011;4270;48.148;11.648;2024-03-17T11:02:25;1.70;;;1.20;;
8466;SDS011;4270;48.148;11.648;2024-03-17T11:04:57;2.53;;;1.27;;
8466;SDS011;4270;48.148;11.648;2024-03-17T11:07:23;2.00;;;1.20;;
8466;SDS011;4270;48.148;11.648;2024-03-17T11:09:49;1.60;;;1.50;;
8466;SDS011;4270;48.148;11.648;2024-03-17T11:17:43;2.27;;;1.10;;
8466;SDS011;4270;48.148;11.648;2024-03-17T11:20:25;2.53;;;1.33;;
8466;SDS011;4270;48.148;11.648;2024-03-17T11:23:00;3.07;;;1.37;;
8466;SDS011;4270;48.148;11.648;2024-03-17T11:27:51;1.40;;;1.20;;
8466;SDS011;4270;48.148;11.648;2024-03-17T11:46:40;2.30;;;1.30;;
8466;SDS011;4270;48.148;11.648;2024-03-17T11:49:06;2.70;;;1.47;;
8466;SDS011;4270;48.148;11.648;2024-03-17T11:51:33;2.50;;;1.23;;
8466;SDS011;4270;48.148;11.648;2024-03-17T11:53:59;3.97;;;1.53;;
8466;SDS011;4270;48.148;11.648;2024-03-17T11:56:24;8.10;;;1.97;;
8466;SDS011;4270;48.148;11.648;2024-03-17T11:59:03;2.50;;;1.20;;
8466;SDS011;4270;48.148;11.648;2024-03-17T12:01:28;3.53;;;1.10;;
8466;SDS011;4270;48.148;11.648;2024-03-17T12:03:54;2.87;;;1.17;;
8466;SDS011;4270;48.148;11.648;2024-03-17T12:06:20;2.57;;;1.00;;
8466;SDS011;4270;48.148;11.648;2024-03-17T12:08:45;5.93;;;1.47;;
8466;SDS011;4270;48.148;11.648;2024-03-17T12:11:17;2.80;;;1.10;;
8466;SDS011;4270;48.148;11.648;2024-03-17T12:13:42;1.77;;;1.17;;
8466;SDS011;4270;48.148;11.648;2024-03-17T12:16:12;5.23;;;1.53;;
8466;SDS011;4270;48.148;11.648;2024-03-17T12:18:38;2.40;;;0.90;;
8466;SDS011;4270;48.148;11.648;2024-03-17T12:21:10;3.73;;;1.30;;
8466;SDS011;4270;48.148;11.648;2024-03-17T12:23:36;2.27;;;1.00;;
8466;SDS011;4270;48.148;11.648;2024-03-17T12:26:02;2.90;;;1.50;;
8466;SDS011;4270;48.148;11.648;2024-03-17T12:28:27;1.40;;;0.97;;
8466;SDS011;4270;48.148;11.648;2024-03-17T12:30:52;1.60;;;1.07;;
8466;SDS011;4270;48.148;11.648;2024-03-17T12:33:18;3.03;;;1.27;;
8466;SDS011;4270;48.148;11.648;2024-03-17T12:35:44;2.17;;;1.10;;
8466;SDS011;4270;48.148;11.648;2024-03-17T12:38:22;2.73;;;1.50;;
8466;SDS011;4270;48.148;11.648;2024-03-17T12:40:48;3.23;;;1.20;;
8466;SDS011;4270;48.148;11.648;2024-03-17T12:43:13;3.70;;;1.50;;
8466;SDS011;4270;48.148;11.648;2024-03-17T12:45:38;1.80;;;1.20;;
8466;SDS011;4270;48.148;11.648;2024-03-17T12:48:03;3.10;;;1.53;;
8466;SDS011;4270;48.148;11.648;2024-03-17T12:50:29;3.13;;;1.40;;
8466;SDS011;4270;48.148;11.648;2024-03-17T12:52:55;2.90;;;1.20;;
8466;SDS011;4270;48.148;11.648;2024-03-17T12:55:20;2.67;;;1.50;;
8466;SDS011;4270;48.148;11.648;2024-03-17T13:00:58;1.90;;;1.43;;
8466;SDS011;4270;48.148;11.648;2024-03-17T13:03:24;2.53;;;1.43;;
8466;SDS011;4270;48.148;11.648;2024-03-17T13:05:50;2.90;;;1.20;;
8466;SDS011;4270;48.148;11.648;2024-03-17T13:08:15;4.33;;;1.23;;
8466;SDS011;4270;48.148;11.648;2024-03-17T13:10:41;2.77;;;1.20;;
8466;SDS011;4270;48.148;11.648;2024-03-17T13:13:10;2.70;;;1.23;;
8466;SDS011;4270;48.148;11.648;2024-03-17T13:15:37;2.03;;;1.00;;
8466;SDS011;4270;48.148;11.648;2024-03-17T13:18:03;1.77;;;1.20;;
8466;SDS011;4270;48.148;11.648;2024-03-17T13:20:29;1.83;;;1.10;;
8466;SDS011;4270;48.148;11.648;2024-03-17T13:22:54;2.77;;;1.10;;
8466;SDS011;4270;48.148;11.648;2024-03-17T13:25:26;2.80;;;1.13;;
8466;SDS011;4270;48.148;11.648;2024-03-17T13:27:54;2.40;;;1.43;;
8466;SDS011;4270;48.148;11.648;2024-03-17T13:30:20;5.43;;;1.97;;
8466;SDS011;4270;48.148;11.648;2024-03-17T13:32:47;2.20;;;1.30;;
8466;SDS011;4270;48.148;11.648;2024-03-17T13:35:17;8.23;;;2.23;;
8466;SDS011;4270;48.148;11.648;2024-03-17T13:37:44;3.63;;;1.63;;
8466;SDS011;4270;48.148;11.648;2024-03-17T13:40:09;1.90;;;1.07;;
8466;SDS011;4270;48.148;11.648;2024-03-17T13:42:40;4.77;;;1.33;;
8466;SDS011;4270;48.148;11.648;2024-03-17T13:45:06;2.33;;;1.40;;
8466;SDS011;4270;48.148;11.648;2024-03-17T13:47:35;1.60;;;1.20;;
8466;SDS011;4270;48.148;11.648;2024-03-17T13:50:00;3.00;;;1.50;;
8466;SDS011;4270;48.148;11.648;2024-03-17T13:52:25;3.70;;;1.43;;
8466;SDS011;4270;48.148;11.648;2024-03-17T13:54:50;3.47;;;1.60;;
8466;SDS011;4270;48.148;11.648;2024-03-17T13:57:16;2.43;;;1.80;;
8466;SDS011;4270;48.148;11.648;2024-03-17T13:59:41;4.97;;;2.20;;
8466;SDS011;4270;48.148;11.648;2024-03-17T14:02:08;1.57;;;1.40;;
8466;SDS011;4270;48.148;11.648;2024-03-17T14:04:37;3.27;;;1.23;;
8466;SDS011;4270;48.148;11.648;2024-03-17T14:07:02;2.27;;;1.50;;
8466;SDS011;4270;48.148;11.648;2024-03-17T14:09:29;1.77;;;1.20;;
8466;SDS011;4270;48.148;11.648;2024-03-17T14:11:54;1.97;;;1.23;;
8466;SDS011;4270;48.148;11.648;2024-03-17T14:14:19;1.90;;;1.10;;
8466;SDS011;4270;48.148;11.648;2024-03-17T14:16:46;3.73;;;1.70;;
8466;SDS011;4270;48.148;11.648;2024-03-17T14:19:11;3.87;;;1.37;;
8466;SDS011;4270;48.148;11.648;2024-03-17T14:21:36;2.93;;;1.37;;
8466;SDS011;4270;48.148;11.648;2024-03-17T14:24:02;2.83;;;1.50;;
8466;SDS011;4270;48.148;11.648;2024-03-17T14:26:31;2.27;;;1.27;;
8466;SDS011;4270;48.148;11.648;2024-03-17T14:28:57;3.80;;;1.53;;
8466;SDS011;4270;48.148;11.648;2024-03-17T14:31:22;1.80;;;1.20;;
8466;SDS011;4270;48.148;11.648;2024-03-17T14:33:47;3.17;;;2.00;;
8466;SDS011;4270;48.148;11.648;2024-03-17T14:36:12;3.53;;;1.53;;
8466;SDS011;4270;48.148;11.648;2024-03-17T14:38:38;2.30;;;1.27;;
8466;SDS011;4270;48.148;11.648;2024-03-17T14:41:03;2.70;;;1.40;;
8466;SDS011;4270;48.148;11.648;2024-03-17T14:43:29;3.07;;;1.27;;
8466;SDS011;4270;48.148;11.648;2024-03-17T14:45:55;5.30;;;2.33;;
8466;SDS011;4270;48.148;11.648;2024-03-17T14:48:20;3.67;;;1.23;;
8466;SDS011;4270;48.148;11.648;2024-03-17T14:50:45;2.20;;;1.20;;
8466;SDS011;4270;48.148;11.648;2024-03-17T14:53:11;1.67;;;1.07;;
8466;SDS011;4270;48.148;11.648;2024-03-17T14:55:36;2.57;;;1.20;;
8466;SDS011;4270;48.148;11.648;2024-03-17T14:58:01;3.30;;;1.20;;
8466;SDS011;4270;48.148;11.648;2024-03-17T15:00:27;2.50;;;1.87;;
8466;SDS011;4270;48.148;11.648;2024-03-17T15:02:55;4.80;;;1.60;;
8466;SDS011;4270;48.148;11.648;2024-03-17T15:05:21;3.07;;;1.10;;
8466;SDS011;4270;48.148;11.648;2024-03-17T15:07:50;4.73;;;1.20;;
8466;SDS011;4270;48.148;11.648;2024-03-17T15:10:15;1.53;;;0.90;;
8466;SDS011;4270;48.148;11.648;2024-03-17T15:12:45;2.10;;;1.20;;
8466;SDS011;4270;48.148;11.648;2024-03-17T15:15:10;3.37;;;1.40;;
8466;SDS011;4270;48.148;11.648;2024-03-17T15:17:35;2.87;;;1.20;;
8466;SDS011;4270;48.148;11.648;2024-03-17T15:20:01;7.80;;;1.80;;
8466;SDS011;4270;48.148;11.648;2024-03-17T15:22:26;19.93;;;2.40;;
8466;SDS011;4270;48.148;11.648;2024-03-17T15:24:51;3.03;;;1.20;;
8466;SDS011;4270;48.148;11.648;2024-03-17T15:27:17;2.17;;;1.10;;
8466;SDS011;4270;48.148;11.648;2024-03-17T15:29:42;2.47;;;1.63;;
8466;SDS011;4270;48.148;11.648;2024-03-17T15:32:07;2.27;;;1.40;;